Fall Branch, Tennessee
Current Conditions -  °F | °C
As of 6:53 PM on Friday 24 Oct 2014 (Local Time) from KTRI Reporting Station
Few Clouds Few Clouds  
Wind Chill: 55°   Ceiling: Unl
Heat Index: 55°   Visibility: 10mi
Dew Point: 42°   Wind: 3mph
Humidity: 62%   Direction: 250°WSW
Pressure: 30.04"   Gusts: NA
Location:  36.42°N, 82.62°W
Report Text: KTRI 242253Z 25003KT 10SM FEW100 13/06 A3004 RMK AO2 SLP164 T01280056
Loading
Personal Weather Stations






























Interactive Weather Map
Tropical Storm Tracking
New forecast layout! Learn more

10-Day Weather Forecast

Advertisements
Track Severe Weather on mobile